sensor_id;sensor_type;location;lat;lon;timestamp;temperature;humidity
35804;DHT22;21924;51.934;7.414;2023-04-25T00:02:18;6.50;99.90
35804;DHT22;21924;51.934;7.414;2023-04-25T00:05:03;6.50;99.90
35804;DHT22;21924;51.934;7.414;2023-04-25T00:07:49;6.50;99.90
35804;DHT22;21924;51.934;7.414;2023-04-25T00:10:34;6.50;99.90
35804;DHT22;21924;51.934;7.414;2023-04-25T00:13:18;6.50;99.90
35804;DHT22;21924;51.934;7.414;2023-04-25T00:16:03;6.50;99.90
35804;DHT22;21924;51.934;7.414;2023-04-25T00:18:48;6.50;99.90
35804;DHT22;21924;51.934;7.414;2023-04-25T00:21:35;6.50;99.90
35804;DHT22;21924;51.934;7.414;2023-04-25T00:24:21;6.50;99.90
35804;DHT22;21924;51.934;7.414;2023-04-25T00:27:06;6.50;99.90
35804;DHT22;21924;51.934;7.414;2023-04-25T00:29:50;6.60;99.90
35804;DHT22;21924;51.934;7.414;2023-04-25T00:32:34;6.50;99.90
35804;DHT22;21924;51.934;7.414;2023-04-25T00:35:19;6.50;99.90
35804;DHT22;21924;51.934;7.414;2023-04-25T00:38:03;6.50;99.90
35804;DHT22;21924;51.934;7.414;2023-04-25T00:40:47;6.60;99.90
35804;DHT22;21924;51.934;7.414;2023-04-25T00:43:32;6.60;99.90
35804;DHT22;21924;51.934;7.414;2023-04-25T00:46:17;6.60;99.90
35804;DHT22;21924;51.934;7.414;2023-04-25T00:49:02;6.60;99.90
35804;DHT22;21924;51.934;7.414;2023-04-25T00:51:46;6.60;99.90
35804;DHT22;21924;51.934;7.414;2023-04-25T00:54:31;6.60;99.90
35804;DHT22;21924;51.934;7.414;2023-04-25T00:57:15;6.60;99.90
35804;DHT22;21924;51.934;7.414;2023-04-25T01:00:00;6.60;99.90
35804;DHT22;21924;51.934;7.414;2023-04-25T01:02:44;6.60;99.90
35804;DHT22;21924;51.934;7.414;2023-04-25T01:05:29;6.60;99.90
35804;DHT22;21924;51.934;7.414;2023-04-25T01:08:14;6.60;99.90
35804;DHT22;21924;51.934;7.414;2023-04-25T01:10:58;6.60;99.90
35804;DHT22;21924;51.934;7.414;2023-04-25T01:13:42;6.60;99.90
35804;DHT22;21924;51.934;7.414;2023-04-25T01:16:27;6.60;99.90
35804;DHT22;21924;51.934;7.414;2023-04-25T01:19:11;6.60;99.90
35804;DHT22;21924;51.934;7.414;2023-04-25T01:21:56;6.60;99.90
35804;DHT22;21924;51.934;7.414;2023-04-25T01:24:40;6.60;99.90
35804;DHT22;21924;51.934;7.414;2023-04-25T01:27:25;6.60;99.90
35804;DHT22;21924;51.934;7.414;2023-04-25T01:30:10;6.60;99.90
35804;DHT22;21924;51.934;7.414;2023-04-25T01:32:55;6.60;99.90
35804;DHT22;21924;51.934;7.414;2023-04-25T01:35:40;6.60;99.90
35804;DHT22;21924;51.934;7.414;2023-04-25T01:38:24;6.60;99.90
35804;DHT22;21924;51.934;7.414;2023-04-25T01:41:10;6.60;99.90
35804;DHT22;21924;51.934;7.414;2023-04-25T01:43:54;6.60;99.90
35804;DHT22;21924;51.934;7.414;2023-04-25T01:46:39;6.60;99.90
35804;DHT22;21924;51.934;7.414;2023-04-25T01:49:23;6.60;99.90
35804;DHT22;21924;51.934;7.414;2023-04-25T01:52:07;6.60;99.90
35804;DHT22;21924;51.934;7.414;2023-04-25T01:54:52;6.60;99.90
35804;DHT22;21924;51.934;7.414;2023-04-25T01:57:37;6.60;99.90
35804;DHT22;21924;51.934;7.414;2023-04-25T02:00:22;6.50;99.90
35804;DHT22;21924;51.934;7.414;2023-04-25T02:03:07;6.50;99.90
35804;DHT22;21924;51.934;7.414;2023-04-25T02:05:52;6.50;99.90
35804;DHT22;21924;51.934;7.414;2023-04-25T02:08:36;6.40;99.90
35804;DHT22;21924;51.934;7.414;2023-04-25T02:11:21;6.40;99.90
35804;DHT22;21924;51.934;7.414;2023-04-25T02:14:05;6.40;99.90
35804;DHT22;21924;51.934;7.414;2023-04-25T02:16:49;6.40;99.90
35804;DHT22;21924;51.934;7.414;2023-04-25T02:19:34;6.40;99.90
35804;DHT22;21924;51.934;7.414;2023-04-25T02:22:19;6.40;99.90
35804;DHT22;21924;51.934;7.414;2023-04-25T02:25:04;6.40;99.90
35804;DHT22;21924;51.934;7.414;2023-04-25T02:27:48;6.30;99.90
35804;DHT22;21924;51.934;7.414;2023-04-25T02:30:32;6.40;99.90
35804;DHT22;21924;51.934;7.414;2023-04-25T02:33:17;6.30;99.90
35804;DHT22;21924;51.934;7.414;2023-04-25T02:36:01;6.30;99.90
35804;DHT22;21924;51.934;7.414;2023-04-25T02:38:46;6.30;99.90
35804;DHT22;21924;51.934;7.414;2023-04-25T02:41:30;6.30;99.90
35804;DHT22;21924;51.934;7.414;2023-04-25T02:44:14;6.30;99.90
35804;DHT22;21924;51.934;7.414;2023-04-25T02:46:58;6.30;99.90
35804;DHT22;21924;51.934;7.414;2023-04-25T02:49:42;6.30;99.90
35804;DHT22;21924;51.934;7.414;2023-04-25T02:52:27;6.30;99.90
35804;DHT22;21924;51.934;7.414;2023-04-25T02:55:12;6.30;99.90
35804;DHT22;21924;51.934;7.414;2023-04-25T02:57:57;6.30;99.90
35804;DHT22;21924;51.934;7.414;2023-04-25T03:00:41;6.30;99.90
35804;DHT22;21924;51.934;7.414;2023-04-25T03:03:25;6.20;99.90
35804;DHT22;21924;51.934;7.414;2023-04-25T03:06:10;6.30;99.90
35804;DHT22;21924;51.934;7.414;2023-04-25T03:08:54;6.20;99.90
35804;DHT22;21924;51.934;7.414;2023-04-25T03:11:39;6.20;99.90
35804;DHT22;21924;51.934;7.414;2023-04-25T03:14:23;6.20;99.90
35804;DHT22;21924;51.934;7.414;2023-04-25T03:17:07;6.20;99.90
35804;DHT22;21924;51.934;7.414;2023-04-25T03:19:51;6.20;99.90
35804;DHT22;21924;51.934;7.414;2023-04-25T03:22:36;6.30;99.90
35804;DHT22;21924;51.934;7.414;2023-04-25T03:25:20;6.20;99.90
35804;DHT22;21924;51.934;7.414;2023-04-25T03:28:05;6.20;99.90
35804;DHT22;21924;51.934;7.414;2023-04-25T03:30:49;6.20;99.90
35804;DHT22;21924;51.934;7.414;2023-04-25T03:33:33;6.20;99.90
35804;DHT22;21924;51.934;7.414;2023-04-25T03:36:18;6.20;99.90
35804;DHT22;21924;51.934;7.414;2023-04-25T03:39:02;6.10;99.90
35804;DHT22;21924;51.934;7.414;2023-04-25T03:41:46;6.10;99.90
35804;DHT22;21924;51.934;7.414;2023-04-25T03:44:30;6.10;99.90
35804;DHT22;21924;51.934;7.414;2023-04-25T03:47:15;6.10;99.90
35804;DHT22;21924;51.934;7.414;2023-04-25T03:49:59;6.10;99.90
35804;DHT22;21924;51.934;7.414;2023-04-25T03:52:45;6.10;99.90
35804;DHT22;21924;51.934;7.414;2023-04-25T03:55:29;6.10;99.90
35804;DHT22;21924;51.934;7.414;2023-04-25T03:58:14;6.00;99.90
35804;DHT22;21924;51.934;7.414;2023-04-25T04:00:59;6.00;99.90
35804;DHT22;21924;51.934;7.414;2023-04-25T04:03:43;6.00;99.90
35804;DHT22;21924;51.934;7.414;2023-04-25T04:06:27;6.00;99.90
35804;DHT22;21924;51.934;7.414;2023-04-25T04:09:12;6.00;99.90
35804;DHT22;21924;51.934;7.414;2023-04-25T04:11:56;6.00;99.90
35804;DHT22;21924;51.934;7.414;2023-04-25T04:14:41;6.00;99.90
35804;DHT22;21924;51.934;7.414;2023-04-25T04:17:25;6.00;99.90
35804;DHT22;21924;51.934;7.414;2023-04-25T04:20:09;5.90;99.90
35804;DHT22;21924;51.934;7.414;2023-04-25T04:22:55;5.90;99.90
35804;DHT22;21924;51.934;7.414;2023-04-25T04:25:39;5.90;99.90
35804;DHT22;21924;51.934;7.414;2023-04-25T04:28:24;5.90;99.90
35804;DHT22;21924;51.934;7.414;2023-04-25T04:31:10;5.90;99.90
35804;DHT22;21924;51.934;7.414;2023-04-25T04:33:54;5.90;99.90
35804;DHT22;21924;51.934;7.414;2023-04-25T04:36:38;5.90;99.90
35804;DHT22;21924;51.934;7.414;2023-04-25T04:39:24;5.90;99.90
35804;DHT22;21924;51.934;7.414;2023-04-25T04:42:09;5.90;99.90
35804;DHT22;21924;51.934;7.414;2023-04-25T04:44:53;5.90;99.90
35804;DHT22;21924;51.934;7.414;2023-04-25T04:47:39;5.90;99.90
35804;DHT22;21924;51.934;7.414;2023-04-25T04:50:23;5.90;99.90
35804;DHT22;21924;51.934;7.414;2023-04-25T04:53:08;5.90;99.90
35804;DHT22;21924;51.934;7.414;2023-04-25T04:55:52;5.90;99.90
35804;DHT22;21924;51.934;7.414;2023-04-25T04:58:37;5.90;99.90
35804;DHT22;21924;51.934;7.414;2023-04-25T05:01:21;5.90;99.90
35804;DHT22;21924;51.934;7.414;2023-04-25T05:04:05;5.80;99.90
35804;DHT22;21924;51.934;7.414;2023-04-25T05:06:50;5.90;99.90
35804;DHT22;21924;51.934;7.414;2023-04-25T05:09:34;5.90;99.90
35804;DHT22;21924;51.934;7.414;2023-04-25T05:12:19;5.80;99.90
35804;DHT22;21924;51.934;7.414;2023-04-25T05:15:03;5.80;99.90
35804;DHT22;21924;51.934;7.414;2023-04-25T05:17:48;5.90;99.90
35804;DHT22;21924;51.934;7.414;2023-04-25T05:20:32;5.90;99.90
35804;DHT22;21924;51.934;7.414;2023-04-25T05:23:17;5.90;99.90
35804;DHT22;21924;51.934;7.414;2023-04-25T05:26:01;5.90;99.90
35804;DHT22;21924;51.934;7.414;2023-04-25T05:28:45;6.00;99.90
35804;DHT22;21924;51.934;7.414;2023-04-25T05:31:30;6.00;99.90
35804;DHT22;21924;51.934;7.414;2023-04-25T05:34:14;6.00;99.90
35804;DHT22;21924;51.934;7.414;2023-04-25T05:36:59;6.00;99.90
35804;DHT22;21924;51.934;7.414;2023-04-25T05:39:44;6.00;99.90
35804;DHT22;21924;51.934;7.414;2023-04-25T05:42:28;6.00;99.90
35804;DHT22;21924;51.934;7.414;2023-04-25T05:45:12;6.00;99.90
35804;DHT22;21924;51.934;7.414;2023-04-25T05:47:57;6.00;99.90
35804;DHT22;21924;51.934;7.414;2023-04-25T05:50:41;6.10;99.90
35804;DHT22;21924;51.934;7.414;2023-04-25T05:53:25;6.20;99.90
35804;DHT22;21924;51.934;7.414;2023-04-25T05:56:10;6.30;99.90
35804;DHT22;21924;51.934;7.414;2023-04-25T05:58:54;6.30;99.90
35804;DHT22;21924;51.934;7.414;2023-04-25T06:01:38;6.40;99.90
35804;DHT22;21924;51.934;7.414;2023-04-25T06:04:25;6.30;99.90
35804;DHT22;21924;51.934;7.414;2023-04-25T06:07:09;6.40;99.90
35804;DHT22;21924;51.934;7.414;2023-04-25T06:09:54;6.40;99.90
35804;DHT22;21924;51.934;7.414;2023-04-25T06:12:38;6.40;99.90
35804;DHT22;21924;51.934;7.414;2023-04-25T06:15:22;6.50;99.90
35804;DHT22;21924;51.934;7.414;2023-04-25T06:18:07;6.50;99.90
35804;DHT22;21924;51.934;7.414;2023-04-25T06:20:51;6.60;99.90
35804;DHT22;21924;51.934;7.414;2023-04-25T06:23:35;6.70;99.90
35804;DHT22;21924;51.934;7.414;2023-04-25T06:26:19;6.80;99.90
35804;DHT22;21924;51.934;7.414;2023-04-25T06:29:04;6.80;99.90
35804;DHT22;21924;51.934;7.414;2023-04-25T06:31:48;6.90;99.90
35804;DHT22;21924;51.934;7.414;2023-04-25T06:34:32;7.00;99.90
35804;DHT22;21924;51.934;7.414;2023-04-25T06:37:16;7.20;99.90
35804;DHT22;21924;51.934;7.414;2023-04-25T06:40:01;7.20;99.90
35804;DHT22;21924;51.934;7.414;2023-04-25T06:42:45;7.30;99.90
35804;DHT22;21924;51.934;7.414;2023-04-25T06:45:29;7.40;99.90
35804;DHT22;21924;51.934;7.414;2023-04-25T06:48:13;7.40;99.90
35804;DHT22;21924;51.934;7.414;2023-04-25T06:50:58;7.40;99.90
35804;DHT22;21924;51.934;7.414;2023-04-25T06:53:42;7.50;99.90
35804;DHT22;21924;51.934;7.414;2023-04-25T06:56:26;7.50;99.90
35804;DHT22;21924;51.934;7.414;2023-04-25T06:59:13;7.50;99.90
35804;DHT22;21924;51.934;7.414;2023-04-25T07:01:57;7.60;99.90
35804;DHT22;21924;51.934;7.414;2023-04-25T07:04:41;7.70;99.90
35804;DHT22;21924;51.934;7.414;2023-04-25T07:07:27;7.70;99.90
35804;DHT22;21924;51.934;7.414;2023-04-25T07:10:11;7.80;99.90
35804;DHT22;21924;51.934;7.414;2023-04-25T07:12:55;7.80;99.90
35804;DHT22;21924;51.934;7.414;2023-04-25T07:15:39;7.80;99.90
35804;DHT22;21924;51.934;7.414;2023-04-25T07:18:24;7.80;99.90
35804;DHT22;21924;51.934;7.414;2023-04-25T07:21:08;7.90;99.90
35804;DHT22;21924;51.934;7.414;2023-04-25T07:23:52;7.80;99.90
35804;DHT22;21924;51.934;7.414;2023-04-25T07:26:37;8.00;99.90
35804;DHT22;21924;51.934;7.414;2023-04-25T07:29:21;8.10;99.90
35804;DHT22;21924;51.934;7.414;2023-04-25T07:32:05;8.20;99.90
35804;DHT22;21924;51.934;7.414;2023-04-25T07:34:49;8.20;99.90
35804;DHT22;21924;51.934;7.414;2023-04-25T07:37:35;8.20;99.90
35804;DHT22;21924;51.934;7.414;2023-04-25T07:40:19;8.30;99.90
35804;DHT22;21924;51.934;7.414;2023-04-25T07:43:04;8.30;99.90
35804;DHT22;21924;51.934;7.414;2023-04-25T07:45:48;8.40;99.90
35804;DHT22;21924;51.934;7.414;2023-04-25T07:48:32;8.40;99.90
35804;DHT22;21924;51.934;7.414;2023-04-25T07:51:16;8.30;99.90
35804;DHT22;21924;51.934;7.414;2023-04-25T07:54:03;8.30;99.90
35804;DHT22;21924;51.934;7.414;2023-04-25T07:56:49;8.30;99.90
35804;DHT22;21924;51.934;7.414;2023-04-25T07:59:33;8.20;99.90
35804;DHT22;21924;51.934;7.414;2023-04-25T08:02:17;8.20;99.90
35804;DHT22;21924;51.934;7.414;2023-04-25T08:05:02;8.40;99.90
35804;DHT22;21924;51.934;7.414;2023-04-25T08:07:46;8.50;99.90
35804;DHT22;21924;51.934;7.414;2023-04-25T08:10:31;8.70;99.90
35804;DHT22;21924;51.934;7.414;2023-04-25T08:13:15;8.60;99.90
35804;DHT22;21924;51.934;7.414;2023-04-25T08:15:59;8.70;99.90
35804;DHT22;21924;51.934;7.414;2023-04-25T08:18:43;8.70;99.90
35804;DHT22;21924;51.934;7.414;2023-04-25T08:21:28;8.60;99.90
35804;DHT22;21924;51.934;7.414;2023-04-25T08:24:12;8.70;99.90
35804;DHT22;21924;51.934;7.414;2023-04-25T08:26:56;8.80;99.90
35804;DHT22;21924;51.934;7.414;2023-04-25T08:29:42;9.00;99.90
35804;DHT22;21924;51.934;7.414;2023-04-25T08:32:27;9.00;99.90
35804;DHT22;21924;51.934;7.414;2023-04-25T08:35:11;8.90;99.90
35804;DHT22;21924;51.934;7.414;2023-04-25T08:37:55;8.60;99.90
35804;DHT22;21924;51.934;7.414;2023-04-25T08:40:40;8.30;99.90
35804;DHT22;21924;51.934;7.414;2023-04-25T08:43:25;8.30;99.90
35804;DHT22;21924;51.934;7.414;2023-04-25T08:46:09;8.50;99.90
35804;DHT22;21924;51.934;7.414;2023-04-25T08:49:00;8.70;99.90
35804;DHT22;21924;51.934;7.414;2023-04-25T08:51:46;8.80;99.90
35804;DHT22;21924;51.934;7.414;2023-04-25T08:54:31;8.80;99.90
35804;DHT22;21924;51.934;7.414;2023-04-25T08:57:17;9.00;99.90
35804;DHT22;21924;51.934;7.414;2023-04-25T09:00:02;9.20;99.90
35804;DHT22;21924;51.934;7.414;2023-04-25T09:02:47;9.50;99.90
35804;DHT22;21924;51.934;7.414;2023-04-25T09:05:34;9.80;99.90
35804;DHT22;21924;51.934;7.414;2023-04-25T09:08:19;10.00;99.90
35804;DHT22;21924;51.934;7.414;2023-04-25T09:11:04;9.90;99.90
35804;DHT22;21924;51.934;7.414;2023-04-25T09:13:48;9.90;99.90
35804;DHT22;21924;51.934;7.414;2023-04-25T09:16:32;10.20;99.90
35804;DHT22;21924;51.934;7.414;2023-04-25T09:19:25;10.00;99.90
35804;DHT22;21924;51.934;7.414;2023-04-25T09:22:09;9.70;99.90
35804;DHT22;21924;51.934;7.414;2023-04-25T09:24:54;9.60;99.90
35804;DHT22;21924;51.934;7.414;2023-04-25T09:27:50;9.60;99.90
35804;DHT22;21924;51.934;7.414;2023-04-25T09:30:36;9.60;99.90
35804;DHT22;21924;51.934;7.414;2023-04-25T09:33:20;9.50;99.90
35804;DHT22;21924;51.934;7.414;2023-04-25T09:36:07;9.40;99.90
35804;DHT22;21924;51.934;7.414;2023-04-25T09:38:51;9.60;99.90
35804;DHT22;21924;51.934;7.414;2023-04-25T09:41:38;9.70;99.90
35804;DHT22;21924;51.934;7.414;2023-04-25T09:44:23;9.80;99.90
35804;DHT22;21924;51.934;7.414;2023-04-25T09:47:10;9.80;99.90
35804;DHT22;21924;51.934;7.414;2023-04-25T09:49:55;9.90;99.90
35804;DHT22;21924;51.934;7.414;2023-04-25T09:52:39;9.80;99.90
35804;DHT22;21924;51.934;7.414;2023-04-25T09:55:24;9.70;99.90
35804;DHT22;21924;51.934;7.414;2023-04-25T09:58:10;9.40;99.90
35804;DHT22;21924;51.934;7.414;2023-04-25T10:01:03;9.50;99.90
35804;DHT22;21924;51.934;7.414;2023-04-25T10:03:49;9.60;99.90
35804;DHT22;21924;51.934;7.414;2023-04-25T10:06:34;9.90;99.90
35804;DHT22;21924;51.934;7.414;2023-04-25T10:09:20;9.90;99.90
35804;DHT22;21924;51.934;7.414;2023-04-25T10:12:06;9.90;99.90
35804;DHT22;21924;51.934;7.414;2023-04-25T10:14:52;9.90;99.90
35804;DHT22;21924;51.934;7.414;2023-04-25T10:17:36;9.80;99.90
35804;DHT22;21924;51.934;7.414;2023-04-25T10:20:22;9.80;99.90
35804;DHT22;21924;51.934;7.414;2023-04-25T10:23:13;9.60;99.90
35804;DHT22;21924;51.934;7.414;2023-04-25T10:25:58;9.50;99.90
35804;DHT22;21924;51.934;7.414;2023-04-25T10:28:56;9.50;99.90
35804;DHT22;21924;51.934;7.414;2023-04-25T10:31:47;9.60;99.90
35804;DHT22;21924;51.934;7.414;2023-04-25T10:34:39;9.90;99.90
35804;DHT22;21924;51.934;7.414;2023-04-25T10:37:26;10.20;99.90
35804;DHT22;21924;51.934;7.414;2023-04-25T10:40:11;10.50;99.90
35804;DHT22;21924;51.934;7.414;2023-04-25T10:42:55;10.60;99.90
35804;DHT22;21924;51.934;7.414;2023-04-25T10:45:52;10.70;99.90
35804;DHT22;21924;51.934;7.414;2023-04-25T10:48:37;10.70;99.90
35804;DHT22;21924;51.934;7.414;2023-04-25T10:51:29;10.90;99.90
35804;DHT22;21924;51.934;7.414;2023-04-25T10:54:17;10.90;99.90
35804;DHT22;21924;51.934;7.414;2023-04-25T10:57:01;10.60;99.90
35804;DHT22;21924;51.934;7.414;2023-04-25T10:59:46;10.70;99.90
35804;DHT22;21924;51.934;7.414;2023-04-25T11:02:30;10.90;99.90
35804;DHT22;21924;51.934;7.414;2023-04-25T11:05:31;11.10;99.90
35804;DHT22;21924;51.934;7.414;2023-04-25T11:08:25;11.40;99.90
35804;DHT22;21924;51.934;7.414;2023-04-25T11:11:18;12.00;99.90
35804;DHT22;21924;51.934;7.414;2023-04-25T11:14:02;12.20;99.90
35804;DHT22;21924;51.934;7.414;2023-04-25T11:16:47;12.10;99.90
35804;DHT22;21924;51.934;7.414;2023-04-25T11:19:31;12.00;99.90
35804;DHT22;21924;51.934;7.414;2023-04-25T11:22:15;11.70;99.90
35804;DHT22;21924;51.934;7.414;2023-04-25T11:25:05;11.40;99.90
35804;DHT22;21924;51.934;7.414;2023-04-25T11:27:53;10.40;99.90
35804;DHT22;21924;51.934;7.414;2023-04-25T11:30:38;9.50;99.90
35804;DHT22;21924;51.934;7.414;2023-04-25T11:33:24;9.00;99.90
35804;DHT22;21924;51.934;7.414;2023-04-25T11:36:09;8.60;99.90
35804;DHT22;21924;51.934;7.414;2023-04-25T11:38:54;8.50;99.90
35804;DHT22;21924;51.934;7.414;2023-04-25T11:41:38;8.70;99.90
35804;DHT22;21924;51.934;7.414;2023-04-25T11:44:23;8.70;99.90
35804;DHT22;21924;51.934;7.414;2023-04-25T11:47:07;8.70;99.90
35804;DHT22;21924;51.934;7.414;2023-04-25T11:49:53;8.70;99.90
35804;DHT22;21924;51.934;7.414;2023-04-25T11:52:45;8.80;99.90
35804;DHT22;21924;51.934;7.414;2023-04-25T11:55:30;8.80;99.90
35804;DHT22;21924;51.934;7.414;2023-04-25T11:58:15;8.80;99.90
35804;DHT22;21924;51.934;7.414;2023-04-25T12:00:59;8.90;99.90
35804;DHT22;21924;51.934;7.414;2023-04-25T12:03:46;9.00;99.90
35804;DHT22;21924;51.934;7.414;2023-04-25T12:06:30;9.00;99.90
35804;DHT22;21924;51.934;7.414;2023-04-25T12:09:30;9.10;99.90
35804;DHT22;21924;51.934;7.414;2023-04-25T12:12:14;9.10;99.90
35804;DHT22;21924;51.934;7.414;2023-04-25T12:15:13;9.10;99.90
35804;DHT22;21924;51.934;7.414;2023-04-25T12:17:58;9.00;99.90
35804;DHT22;21924;51.934;7.414;2023-04-25T12:20:45;9.20;99.90
35804;DHT22;21924;51.934;7.414;2023-04-25T12:23:30;9.30;99.90
35804;DHT22;21924;51.934;7.414;2023-04-25T12:26:14;9.30;99.90
35804;DHT22;21924;51.934;7.414;2023-04-25T12:28:58;9.70;99.90
35804;DHT22;21924;51.934;7.414;2023-04-25T12:31:44;9.80;99.90
35804;DHT22;21924;51.934;7.414;2023-04-25T12:34:29;10.00;99.90
35804;DHT22;21924;51.934;7.414;2023-04-25T12:37:15;10.60;99.90
35804;DHT22;21924;51.934;7.414;2023-04-25T12:39:59;10.80;99.90
35804;DHT22;21924;51.934;7.414;2023-04-25T12:42:43;11.40;99.90
35804;DHT22;21924;51.934;7.414;2023-04-25T12:45:28;11.80;99.90
35804;DHT22;21924;51.934;7.414;2023-04-25T12:48:12;12.00;99.90
35804;DHT22;21924;51.934;7.414;2023-04-25T12:50:57;12.30;99.90
35804;DHT22;21924;51.934;7.414;2023-04-25T12:53:41;12.80;99.90
35804;DHT22;21924;51.934;7.414;2023-04-25T12:56:26;12.90;99.90
35804;DHT22;21924;51.934;7.414;2023-04-25T12:59:11;12.80;99.90
35804;DHT22;21924;51.934;7.414;2023-04-25T13:01:55;13.10;99.90
35804;DHT22;21924;51.934;7.414;2023-04-25T13:04:40;13.20;99.90
35804;DHT22;21924;51.934;7.414;2023-04-25T13:07:24;13.40;99.90
35804;DHT22;21924;51.934;7.414;2023-04-25T13:10:09;13.40;99.90
35804;DHT22;21924;51.934;7.414;2023-04-25T13:12:53;13.30;99.90
35804;DHT22;21924;51.934;7.414;2023-04-25T13:15:37;13.00;99.90
35804;DHT22;21924;51.934;7.414;2023-04-25T13:18:22;13.10;99.90
35804;DHT22;21924;51.934;7.414;2023-04-25T13:21:10;13.60;99.90
35804;DHT22;21924;51.934;7.414;2023-04-25T13:23:57;14.00;99.90
35804;DHT22;21924;51.934;7.414;2023-04-25T13:26:41;14.40;99.90
35804;DHT22;21924;51.934;7.414;2023-04-25T13:29:26;14.30;99.90
35804;DHT22;21924;51.934;7.414;2023-04-25T13:32:10;13.20;99.90
35804;DHT22;21924;51.934;7.414;2023-04-25T13:34:54;11.80;99.90
35804;DHT22;21924;51.934;7.414;2023-04-25T13:37:40;11.30;99.90
35804;DHT22;21924;51.934;7.414;2023-04-25T13:40:24;11.00;99.90
35804;DHT22;21924;51.934;7.414;2023-04-25T13:43:08;10.60;99.90
35804;DHT22;21924;51.934;7.414;2023-04-25T13:45:52;10.40;99.90
35804;DHT22;21924;51.934;7.414;2023-04-25T13:48:36;10.10;99.90
35804;DHT22;21924;51.934;7.414;2023-04-25T13:51:21;9.90;99.90
35804;DHT22;21924;51.934;7.414;2023-04-25T13:54:05;9.90;99.90
35804;DHT22;21924;51.934;7.414;2023-04-25T13:56:49;10.00;99.90
35804;DHT22;21924;51.934;7.414;2023-04-25T13:59:34;10.30;99.90
35804;DHT22;21924;51.934;7.414;2023-04-25T14:02:19;10.70;99.90
35804;DHT22;21924;51.934;7.414;2023-04-25T14:05:04;11.20;99.90
35804;DHT22;21924;51.934;7.414;2023-04-25T14:07:48;11.90;99.90
35804;DHT22;21924;51.934;7.414;2023-04-25T14:10:33;12.40;99.90
35804;DHT22;21924;51.934;7.414;2023-04-25T14:13:17;12.10;99.90
35804;DHT22;21924;51.934;7.414;2023-04-25T14:16:01;12.30;99.90
35804;DHT22;21924;51.934;7.414;2023-04-25T14:18:45;12.30;99.90
35804;DHT22;21924;51.934;7.414;2023-04-25T14:21:30;12.30;99.90
35804;DHT22;21924;51.934;7.414;2023-04-25T14:24:16;12.20;99.90
35804;DHT22;21924;51.934;7.414;2023-04-25T14:27:00;12.80;99.90
35804;DHT22;21924;51.934;7.414;2023-04-25T14:29:45;13.10;99.90
35804;DHT22;21924;51.934;7.414;2023-04-25T14:32:30;13.70;99.90
35804;DHT22;21924;51.934;7.414;2023-04-25T14:35:15;14.40;99.90
35804;DHT22;21924;51.934;7.414;2023-04-25T14:38:00;14.30;99.90
35804;DHT22;21924;51.934;7.414;2023-04-25T14:40:44;14.30;99.90
35804;DHT22;21924;51.934;7.414;2023-04-25T14:43:28;14.40;99.90
35804;DHT22;21924;51.934;7.414;2023-04-25T14:46:13;14.40;99.90
35804;DHT22;21924;51.934;7.414;2023-04-25T14:48:57;13.60;99.90
35804;DHT22;21924;51.934;7.414;2023-04-25T14:51:41;13.30;99.90
35804;DHT22;21924;51.934;7.414;2023-04-25T14:54:25;13.90;99.90
35804;DHT22;21924;51.934;7.414;2023-04-25T14:57:10;14.10;99.90
35804;DHT22;21924;51.934;7.414;2023-04-25T14:59:54;14.10;99.90
35804;DHT22;21924;51.934;7.414;2023-04-25T15:02:38;13.70;99.90
35804;DHT22;21924;51.934;7.414;2023-04-25T15:05:22;13.80;99.90
35804;DHT22;21924;51.934;7.414;2023-04-25T15:08:07;14.40;99.90
35804;DHT22;21924;51.934;7.414;2023-04-25T15:10:51;14.20;99.90
35804;DHT22;21924;51.934;7.414;2023-04-25T15:13:36;14.30;99.90
35804;DHT22;21924;51.934;7.414;2023-04-25T15:16:20;13.80;99.90
35804;DHT22;21924;51.934;7.414;2023-04-25T15:19:04;13.80;99.90
35804;DHT22;21924;51.934;7.414;2023-04-25T15:21:49;13.80;99.90
35804;DHT22;21924;51.934;7.414;2023-04-25T15:24:34;13.60;99.90
35804;DHT22;21924;51.934;7.414;2023-04-25T15:27:18;13.30;99.90
35804;DHT22;21924;51.934;7.414;2023-04-25T15:30:04;12.80;99.90
35804;DHT22;21924;51.934;7.414;2023-04-25T15:32:49;12.10;99.90
35804;DHT22;21924;51.934;7.414;2023-04-25T15:35:33;11.40;99.90
35804;DHT22;21924;51.934;7.414;2023-04-25T15:38:18;10.70;99.90
35804;DHT22;21924;51.934;7.414;2023-04-25T15:41:02;10.30;99.90
35804;DHT22;21924;51.934;7.414;2023-04-25T15:43:47;10.30;99.90
35804;DHT22;21924;51.934;7.414;2023-04-25T15:46:31;10.40;99.90
35804;DHT22;21924;51.934;7.414;2023-04-25T15:49:15;10.60;99.90
35804;DHT22;21924;51.934;7.414;2023-04-25T15:52:00;10.60;99.90
35804;DHT22;21924;51.934;7.414;2023-04-25T15:54:44;10.40;99.90
35804;DHT22;21924;51.934;7.414;2023-04-25T15:57:28;10.20;99.90
35804;DHT22;21924;51.934;7.414;2023-04-25T16:00:13;10.10;99.90
35804;DHT22;21924;51.934;7.414;2023-04-25T16:02:58;10.10;99.90
35804;DHT22;21924;51.934;7.414;2023-04-25T16:05:42;10.20;99.90
35804;DHT22;21924;51.934;7.414;2023-04-25T16:08:26;10.20;99.90
35804;DHT22;21924;51.934;7.414;2023-04-25T16:11:12;10.30;99.90
35804;DHT22;21924;51.934;7.414;2023-04-25T16:13:57;10.40;99.90
35804;DHT22;21924;51.934;7.414;2023-04-25T16:16:41;10.40;99.90
35804;DHT22;21924;51.934;7.414;2023-04-25T16:19:27;10.40;99.90
35804;DHT22;21924;51.934;7.414;2023-04-25T16:22:12;10.40;99.90
35804;DHT22;21924;51.934;7.414;2023-04-25T16:24:59;10.30;99.90
35804;DHT22;21924;51.934;7.414;2023-04-25T16:27:43;10.00;99.90
35804;DHT22;21924;51.934;7.414;2023-04-25T16:30:28;9.90;99.90
35804;DHT22;21924;51.934;7.414;2023-04-25T16:33:12;9.80;99.90
35804;DHT22;21924;51.934;7.414;2023-04-25T16:35:56;9.70;99.90
35804;DHT22;21924;51.934;7.414;2023-04-25T16:38:41;9.80;99.90
35804;DHT22;21924;51.934;7.414;2023-04-25T16:41:25;9.70;99.90
35804;DHT22;21924;51.934;7.414;2023-04-25T16:44:10;9.60;99.90
35804;DHT22;21924;51.934;7.414;2023-04-25T16:46:54;9.60;99.90
35804;DHT22;21924;51.934;7.414;2023-04-25T16:49:38;9.30;99.90
35804;DHT22;21924;51.934;7.414;2023-04-25T16:52:23;9.20;99.90
35804;DHT22;21924;51.934;7.414;2023-04-25T16:55:08;9.10;99.90
35804;DHT22;21924;51.934;7.414;2023-04-25T16:57:53;8.90;99.90
35804;DHT22;21924;51.934;7.414;2023-04-25T17:00:38;9.10;99.90
35804;DHT22;21924;51.934;7.414;2023-04-25T17:03:22;9.20;99.90
35804;DHT22;21924;51.934;7.414;2023-04-25T17:06:07;9.30;99.90
35804;DHT22;21924;51.934;7.414;2023-04-25T17:08:51;9.30;99.90
35804;DHT22;21924;51.934;7.414;2023-04-25T17:11:36;9.30;99.90
35804;DHT22;21924;51.934;7.414;2023-04-25T17:14:20;9.20;99.90
35804;DHT22;21924;51.934;7.414;2023-04-25T17:17:04;9.20;99.90
35804;DHT22;21924;51.934;7.414;2023-04-25T17:19:48;9.00;99.90
35804;DHT22;21924;51.934;7.414;2023-04-25T17:22:33;8.90;99.90
35804;DHT22;21924;51.934;7.414;2023-04-25T17:25:20;8.90;99.90
35804;DHT22;21924;51.934;7.414;2023-04-25T17:28:04;8.80;99.90
35804;DHT22;21924;51.934;7.414;2023-04-25T17:30:48;8.70;99.90
35804;DHT22;21924;51.934;7.414;2023-04-25T17:33:33;8.60;99.90
35804;DHT22;21924;51.934;7.414;2023-04-25T17:36:17;8.60;99.90